sensor_id;sensor_type;location;lat;lon;timestamp;P1;durP1;ratioP1;P2;durP2;ratioP2
58972;SDS011;44750;52.040;7.472;2022-08-01T00:03:54;17.27;;;8.55;;
58972;SDS011;44750;52.040;7.472;2022-08-01T00:08:54;12.80;;;7.80;;
58972;SDS011;44750;52.040;7.472;2022-08-01T00:13:54;16.38;;;8.32;;
58972;SDS011;44750;52.040;7.472;2022-08-01T00:18:55;15.23;;;8.70;;
58972;SDS011;44750;52.040;7.472;2022-08-01T00:23:55;17.07;;;8.53;;
58972;SDS011;44750;52.040;7.472;2022-08-01T00:28:55;17.33;;;8.30;;
58972;SDS011;44750;52.040;7.472;2022-08-01T00:33:55;18.60;;;9.00;;
58972;SDS011;44750;52.040;7.472;2022-08-01T00:38:56;16.05;;;8.68;;
58972;SDS011;44750;52.040;7.472;2022-08-01T00:43:56;15.40;;;8.52;;
58972;SDS011;44750;52.040;7.472;2022-08-01T00:48:56;13.77;;;8.45;;
58972;SDS011;44750;52.040;7.472;2022-08-01T00:53:57;14.80;;;8.73;;
58972;SDS011;44750;52.040;7.472;2022-08-01T00:58:57;17.42;;;8.80;;
58972;SDS011;44750;52.040;7.472;2022-08-01T01:03:58;15.05;;;8.65;;
58972;SDS011;44750;52.040;7.472;2022-08-01T01:09:02;17.65;;;8.05;;
58972;SDS011;44750;52.040;7.472;2022-08-01T01:14:13;16.83;;;7.43;;
58972;SDS011;44750;52.040;7.472;2022-08-01T01:19:28;16.38;;;7.28;;
58972;SDS011;44750;52.040;7.472;2022-08-01T01:24:37;15.40;;;7.22;;
58972;SDS011;44750;52.040;7.472;2022-08-01T01:29:51;12.63;;;7.18;;
58972;SDS011;44750;52.040;7.472;2022-08-01T01:34:54;15.07;;;7.18;;
58972;SDS011;44750;52.040;7.472;2022-08-01T01:39:55;12.32;;;7.22;;
58972;SDS011;44750;52.040;7.472;2022-08-01T01:44:59;15.98;;;7.15;;
58972;SDS011;44750;52.040;7.472;2022-08-01T01:50:02;14.63;;;8.15;;
58972;SDS011;44750;52.040;7.472;2022-08-01T01:55:05;18.25;;;8.18;;
58972;SDS011;44750;52.040;7.472;2022-08-01T02:00:08;22.83;;;8.20;;
58972;SDS011;44750;52.040;7.472;2022-08-01T02:05:11;17.50;;;7.87;;
58972;SDS011;44750;52.040;7.472;2022-08-01T02:10:14;17.13;;;8.60;;
58972;SDS011;44750;52.040;7.472;2022-08-01T02:15:17;20.13;;;8.90;;
58972;SDS011;44750;52.040;7.472;2022-08-01T02:20:19;17.13;;;8.52;;
58972;SDS011;44750;52.040;7.472;2022-08-01T02:25:27;16.03;;;8.27;;
58972;SDS011;44750;52.040;7.472;2022-08-01T02:30:33;15.32;;;7.60;;
58972;SDS011;44750;52.040;7.472;2022-08-01T02:35:35;15.68;;;7.95;;
58972;SDS011;44750;52.040;7.472;2022-08-01T02:40:39;18.75;;;7.25;;
58972;SDS011;44750;52.040;7.472;2022-08-01T02:45:43;13.05;;;6.80;;
58972;SDS011;44750;52.040;7.472;2022-08-01T02:50:47;13.05;;;6.82;;
58972;SDS011;44750;52.040;7.472;2022-08-01T02:55:49;15.85;;;7.30;;
58972;SDS011;44750;52.040;7.472;2022-08-01T03:00:52;13.68;;;6.97;;
58972;SDS011;44750;52.040;7.472;2022-08-01T03:06:09;15.05;;;6.90;;
58972;SDS011;44750;52.040;7.472;2022-08-01T03:11:11;13.77;;;6.63;;
58972;SDS011;44750;52.040;7.472;2022-08-01T03:16:12;13.48;;;7.03;;
58972;SDS011;44750;52.040;7.472;2022-08-01T03:21:14;13.80;;;7.15;;
58972;SDS011;44750;52.040;7.472;2022-08-01T03:26:15;15.63;;;7.20;;
58972;SDS011;44750;52.040;7.472;2022-08-01T03:31:17;14.60;;;6.55;;
58972;SDS011;44750;52.040;7.472;2022-08-01T03:36:19;12.15;;;6.70;;
58972;SDS011;44750;52.040;7.472;2022-08-01T03:41:26;11.88;;;6.72;;
58972;SDS011;44750;52.040;7.472;2022-08-01T03:51:40;12.15;;;5.72;;
58972;SDS011;44750;52.040;7.472;2022-08-01T03:56:40;10.67;;;4.73;;
58972;SDS011;44750;52.040;7.472;2022-08-01T04:01:43;9.75;;;5.10;;
58972;SDS011;44750;52.040;7.472;2022-08-01T04:06:44;8.98;;;5.43;;
58972;SDS011;44750;52.040;7.472;2022-08-01T04:11:44;9.80;;;4.90;;
58972;SDS011;44750;52.040;7.472;2022-08-01T04:16:45;8.60;;;4.73;;
58972;SDS011;44750;52.040;7.472;2022-08-01T04:21:45;10.07;;;4.67;;
58972;SDS011;44750;52.040;7.472;2022-08-01T04:26:46;7.35;;;4.28;;
58972;SDS011;44750;52.040;7.472;2022-08-01T04:31:48;7.43;;;4.50;;
58972;SDS011;44750;52.040;7.472;2022-08-01T04:36:49;10.30;;;5.28;;
58972;SDS011;44750;52.040;7.472;2022-08-01T04:41:52;9.45;;;5.97;;
58972;SDS011;44750;52.040;7.472;2022-08-01T04:46:54;8.75;;;5.53;;
58972;SDS011;44750;52.040;7.472;2022-08-01T04:51:55;11.75;;;5.60;;
58972;SDS011;44750;52.040;7.472;2022-08-01T04:56:56;10.07;;;5.88;;
58972;SDS011;44750;52.040;7.472;2022-08-01T05:01:56;12.10;;;6.13;;
58972;SDS011;44750;52.040;7.472;2022-08-01T05:06:56;11.25;;;6.80;;
58972;SDS011;44750;52.040;7.472;2022-08-01T05:11:57;11.32;;;6.72;;
58972;SDS011;44750;52.040;7.472;2022-08-01T05:17:02;10.98;;;7.03;;
58972;SDS011;44750;52.040;7.472;2022-08-01T05:22:12;11.93;;;6.75;;
58972;SDS011;44750;52.040;7.472;2022-08-01T05:27:12;11.80;;;6.57;;
58972;SDS011;44750;52.040;7.472;2022-08-01T05:32:12;11.73;;;6.80;;
58972;SDS011;44750;52.040;7.472;2022-08-01T05:37:12;10.18;;;7.13;;
58972;SDS011;44750;52.040;7.472;2022-08-01T05:42:13;12.02;;;6.57;;
58972;SDS011;44750;52.040;7.472;2022-08-01T05:47:13;12.15;;;7.30;;
58972;SDS011;44750;52.040;7.472;2022-08-01T05:52:13;7.70;;;3.67;;
58972;SDS011;44750;52.040;7.472;2022-08-01T05:57:14;11.32;;;3.40;;
58972;SDS011;44750;52.040;7.472;2022-08-01T06:02:14;5.80;;;2.67;;
58972;SDS011;44750;52.040;7.472;2022-08-01T06:07:14;5.65;;;3.42;;
58972;SDS011;44750;52.040;7.472;2022-08-01T06:12:14;4.88;;;3.92;;
58972;SDS011;44750;52.040;7.472;2022-08-01T06:17:15;6.93;;;4.10;;
58972;SDS011;44750;52.040;7.472;2022-08-01T06:22:15;4.47;;;3.47;;
58972;SDS011;44750;52.040;7.472;2022-08-01T06:27:15;5.90;;;3.90;;
58972;SDS011;44750;52.040;7.472;2022-08-01T06:32:15;8.45;;;5.28;;
58972;SDS011;44750;52.040;7.472;2022-08-01T06:37:16;7.97;;;5.40;;
58972;SDS011;44750;52.040;7.472;2022-08-01T06:42:16;9.00;;;5.97;;
58972;SDS011;44750;52.040;7.472;2022-08-01T06:47:16;10.32;;;6.10;;
58972;SDS011;44750;52.040;7.472;2022-08-01T06:52:16;9.70;;;6.10;;
58972;SDS011;44750;52.040;7.472;2022-08-01T06:57:17;8.38;;;6.07;;
58972;SDS011;44750;52.040;7.472;2022-08-01T07:02:17;8.98;;;5.60;;
58972;SDS011;44750;52.040;7.472;2022-08-01T07:07:18;6.28;;;3.80;;
58972;SDS011;44750;52.040;7.472;2022-08-01T07:12:18;7.35;;;5.00;;
58972;SDS011;44750;52.040;7.472;2022-08-01T07:17:18;6.97;;;4.40;;
58972;SDS011;44750;52.040;7.472;2022-08-01T07:22:18;6.07;;;4.65;;
58972;SDS011;44750;52.040;7.472;2022-08-01T07:27:18;6.53;;;5.25;;
58972;SDS011;44750;52.040;7.472;2022-08-01T07:32:22;8.02;;;5.70;;
58972;SDS011;44750;52.040;7.472;2022-08-01T07:37:40;7.93;;;5.80;;
58972;SDS011;44750;52.040;7.472;2022-08-01T07:42:40;8.73;;;5.55;;
58972;SDS011;44750;52.040;7.472;2022-08-01T07:47:40;7.90;;;5.75;;
58972;SDS011;44750;52.040;7.472;2022-08-01T07:52:41;4.35;;;3.85;;
58972;SDS011;44750;52.040;7.472;2022-08-01T07:57:41;5.13;;;3.95;;
58972;SDS011;44750;52.040;7.472;2022-08-01T08:02:42;4.82;;;4.18;;
58972;SDS011;44750;52.040;7.472;2022-08-01T08:07:42;5.15;;;4.07;;
58972;SDS011;44750;52.040;7.472;2022-08-01T08:12:42;8.00;;;4.97;;
58972;SDS011;44750;52.040;7.472;2022-08-01T08:17:42;6.68;;;5.28;;
58972;SDS011;44750;52.040;7.472;2022-08-01T08:22:42;6.93;;;5.72;;
58972;SDS011;44750;52.040;7.472;2022-08-01T08:27:43;8.55;;;6.07;;
58972;SDS011;44750;52.040;7.472;2022-08-01T08:32:43;7.05;;;5.57;;
58972;SDS011;44750;52.040;7.472;2022-08-01T08:37:43;6.90;;;5.03;;
58972;SDS011;44750;52.040;7.472;2022-08-01T08:42:43;8.07;;;5.10;;
58972;SDS011;44750;52.040;7.472;2022-08-01T08:47:44;5.73;;;3.90;;
58972;SDS011;44750;52.040;7.472;2022-08-01T08:52:45;6.38;;;3.55;;
58972;SDS011;44750;52.040;7.472;2022-08-01T08:57:46;5.38;;;3.55;;
58972;SDS011;44750;52.040;7.472;2022-08-01T09:02:47;4.85;;;3.42;;
58972;SDS011;44750;52.040;7.472;2022-08-01T09:07:48;7.10;;;3.10;;
58972;SDS011;44750;52.040;7.472;2022-08-01T09:13:05;6.35;;;2.85;;
58972;SDS011;44750;52.040;7.472;2022-08-01T09:18:06;6.38;;;3.33;;
58972;SDS011;44750;52.040;7.472;2022-08-01T09:23:08;5.88;;;3.85;;
58972;SDS011;44750;52.040;7.472;2022-08-01T09:28:35;5.68;;;3.53;;
58972;SDS011;44750;52.040;7.472;2022-08-01T09:33:49;9.52;;;4.40;;
58972;SDS011;44750;52.040;7.472;2022-08-01T09:38:56;5.45;;;4.78;;
58972;SDS011;44750;52.040;7.472;2022-08-01T09:44:12;6.28;;;3.58;;
58972;SDS011;44750;52.040;7.472;2022-08-01T09:49:12;6.63;;;4.43;;
58972;SDS011;44750;52.040;7.472;2022-08-01T09:54:12;9.18;;;4.72;;
58972;SDS011;44750;52.040;7.472;2022-08-01T09:59:34;7.88;;;4.63;;
58972;SDS011;44750;52.040;7.472;2022-08-01T10:04:35;8.38;;;5.40;;
58972;SDS011;44750;52.040;7.472;2022-08-01T10:09:36;15.98;;;5.90;;
58972;SDS011;44750;52.040;7.472;2022-08-01T10:14:37;8.90;;;5.50;;
58972;SDS011;44750;52.040;7.472;2022-08-01T10:19:38;9.20;;;5.78;;
58972;SDS011;44750;52.040;7.472;2022-08-01T10:24:40;11.00;;;5.88;;
58972;SDS011;44750;52.040;7.472;2022-08-01T10:39:47;11.73;;;7.30;;
58972;SDS011;44750;52.040;7.472;2022-08-01T10:44:47;12.38;;;8.50;;
58972;SDS011;44750;52.040;7.472;2022-08-01T10:49:51;16.27;;;10.07;;
58972;SDS011;44750;52.040;7.472;2022-08-01T10:55:04;13.45;;;8.82;;
58972;SDS011;44750;52.040;7.472;2022-08-01T11:00:05;14.57;;;9.55;;
58972;SDS011;44750;52.040;7.472;2022-08-01T11:05:21;15.52;;;8.88;;
58972;SDS011;44750;52.040;7.472;2022-08-01T11:15:41;13.95;;;7.90;;
58972;SDS011;44750;52.040;7.472;2022-08-01T11:20:43;15.25;;;7.78;;
58972;SDS011;44750;52.040;7.472;2022-08-01T11:46:12;15.15;;;6.40;;
58972;SDS011;44750;52.040;7.472;2022-08-01T11:51:15;11.32;;;6.57;;
58972;SDS011;44750;52.040;7.472;2022-08-01T11:56:16;12.98;;;6.25;;
58972;SDS011;44750;52.040;7.472;2022-08-01T12:01:16;12.03;;;6.60;;
58972;SDS011;44750;52.040;7.472;2022-08-01T12:06:26;8.02;;;5.55;;
58972;SDS011;44750;52.040;7.472;2022-08-01T12:11:27;7.07;;;4.18;;
58972;SDS011;44750;52.040;7.472;2022-08-01T12:16:28;8.25;;;4.03;;
58972;SDS011;44750;52.040;7.472;2022-08-01T12:21:28;6.40;;;4.57;;
58972;SDS011;44750;52.040;7.472;2022-08-01T12:26:38;9.50;;;4.38;;
58972;SDS011;44750;52.040;7.472;2022-08-01T12:31:44;8.02;;;4.35;;
58972;SDS011;44750;52.040;7.472;2022-08-01T12:36:47;8.93;;;3.85;;
58972;SDS011;44750;52.040;7.472;2022-08-01T12:41:47;7.63;;;2.80;;
58972;SDS011;44750;52.040;7.472;2022-08-01T12:46:48;7.43;;;3.40;;
58972;SDS011;44750;52.040;7.472;2022-08-01T12:51:49;4.45;;;3.10;;
58972;SDS011;44750;52.040;7.472;2022-08-01T12:56:50;9.95;;;4.15;;
58972;SDS011;44750;52.040;7.472;2022-08-01T13:01:52;6.90;;;3.53;;
58972;SDS011;44750;52.040;7.472;2022-08-01T13:06:55;4.75;;;2.60;;
58972;SDS011;44750;52.040;7.472;2022-08-01T13:11:56;5.55;;;3.08;;
58972;SDS011;44750;52.040;7.472;2022-08-01T13:16:56;6.68;;;2.55;;
58972;SDS011;44750;52.040;7.472;2022-08-01T13:21:56;6.18;;;2.22;;
58972;SDS011;44750;52.040;7.472;2022-08-01T13:26:58;8.02;;;2.40;;
58972;SDS011;44750;52.040;7.472;2022-08-01T13:32:00;5.57;;;2.25;;
58972;SDS011;44750;52.040;7.472;2022-08-01T13:37:15;6.22;;;2.20;;
58972;SDS011;44750;52.040;7.472;2022-08-01T13:42:15;5.10;;;2.38;;
58972;SDS011;44750;52.040;7.472;2022-08-01T13:47:16;7.25;;;2.00;;
58972;SDS011;44750;52.040;7.472;2022-08-01T13:52:16;5.32;;;2.10;;
58972;SDS011;44750;52.040;7.472;2022-08-01T13:57:16;11.93;;;2.10;;
58972;SDS011;44750;52.040;7.472;2022-08-01T14:02:17;5.05;;;1.83;;
58972;SDS011;44750;52.040;7.472;2022-08-01T14:07:17;4.53;;;1.90;;
58972;SDS011;44750;52.040;7.472;2022-08-01T14:12:17;8.90;;;1.95;;
58972;SDS011;44750;52.040;7.472;2022-08-01T14:17:17;5.80;;;1.88;;
58972;SDS011;44750;52.040;7.472;2022-08-01T14:22:18;6.25;;;1.80;;
58972;SDS011;44750;52.040;7.472;2022-08-01T14:27:18;5.75;;;1.60;;
58972;SDS011;44750;52.040;7.472;2022-08-01T14:32:18;6.95;;;1.60;;
58972;SDS011;44750;52.040;7.472;2022-08-01T14:37:18;5.97;;;1.75;;
58972;SDS011;44750;52.040;7.472;2022-08-01T14:42:18;10.10;;;2.03;;
58972;SDS011;44750;52.040;7.472;2022-08-01T14:47:19;8.95;;;2.08;;
58972;SDS011;44750;52.040;7.472;2022-08-01T14:52:19;7.88;;;1.77;;
58972;SDS011;44750;52.040;7.472;2022-08-01T14:57:19;3.75;;;1.55;;
58972;SDS011;44750;52.040;7.472;2022-08-01T15:02:19;4.90;;;1.63;;
58972;SDS011;44750;52.040;7.472;2022-08-01T15:07:19;6.45;;;1.55;;
58972;SDS011;44750;52.040;7.472;2022-08-01T15:12:20;7.30;;;1.60;;
58972;SDS011;44750;52.040;7.472;2022-08-01T15:17:24;5.82;;;1.77;;
58972;SDS011;44750;52.040;7.472;2022-08-01T15:22:26;6.13;;;1.50;;
58972;SDS011;44750;52.040;7.472;2022-08-01T15:27:27;7.00;;;2.05;;
58972;SDS011;44750;52.040;7.472;2022-08-01T15:32:28;5.18;;;1.48;;
58972;SDS011;44750;52.040;7.472;2022-08-01T15:37:28;4.13;;;1.73;;
58972;SDS011;44750;52.040;7.472;2022-08-01T15:42:28;4.82;;;1.70;;
58972;SDS011;44750;52.040;7.472;2022-08-01T15:47:28;5.93;;;1.65;;
58972;SDS011;44750;52.040;7.472;2022-08-01T15:52:29;8.27;;;1.60;;
58972;SDS011;44750;52.040;7.472;2022-08-01T15:57:29;6.43;;;1.30;;
58972;SDS011;44750;52.040;7.472;2022-08-01T16:02:29;7.47;;;1.80;;
58972;SDS011;44750;52.040;7.472;2022-08-01T16:07:29;10.18;;;1.60;;
58972;SDS011;44750;52.040;7.472;2022-08-01T16:12:29;6.43;;;1.50;;
58972;SDS011;44750;52.040;7.472;2022-08-01T16:17:30;3.40;;;1.23;;
58972;SDS011;44750;52.040;7.472;2022-08-01T16:22:30;7.32;;;1.88;;
58972;SDS011;44750;52.040;7.472;2022-08-01T16:27:30;4.07;;;1.27;;
58972;SDS011;44750;52.040;7.472;2022-08-01T16:32:30;3.40;;;1.25;;
58972;SDS011;44750;52.040;7.472;2022-08-01T16:37:31;3.78;;;1.60;;
58972;SDS011;44750;52.040;7.472;2022-08-01T16:42:31;4.38;;;1.42;;
58972;SDS011;44750;52.040;7.472;2022-08-01T16:47:31;6.88;;;1.73;;
58972;SDS011;44750;52.040;7.472;2022-08-01T16:52:31;7.03;;;1.70;;
58972;SDS011;44750;52.040;7.472;2022-08-01T16:57:32;8.00;;;1.30;;
58972;SDS011;44750;52.040;7.472;2022-08-01T17:02:32;5.33;;;1.50;;
58972;SDS011;44750;52.040;7.472;2022-08-01T17:07:33;4.70;;;1.50;;
58972;SDS011;44750;52.040;7.472;2022-08-01T17:12:34;4.10;;;1.40;;
58972;SDS011;44750;52.040;7.472;2022-08-01T17:17:34;6.63;;;1.60;;
58972;SDS011;44750;52.040;7.472;2022-08-01T17:22:34;6.35;;;1.63;;
58972;SDS011;44750;52.040;7.472;2022-08-01T17:27:34;6.50;;;1.45;;
58972;SDS011;44750;52.040;7.472;2022-08-01T17:32:35;4.68;;;1.38;;
58972;SDS011;44750;52.040;7.472;2022-08-01T17:37:35;7.85;;;1.50;;
58972;SDS011;44750;52.040;7.472;2022-08-01T17:42:35;5.82;;;1.70;;
58972;SDS011;44750;52.040;7.472;2022-08-01T17:47:36;6.28;;;1.65;;
58972;SDS011;44750;52.040;7.472;2022-08-01T17:52:37;9.18;;;1.80;;
58972;SDS011;44750;52.040;7.472;2022-08-01T17:57:37;6.68;;;2.10;;
58972;SDS011;44750;52.040;7.472;2022-08-01T18:02:38;6.90;;;1.50;;
58972;SDS011;44750;52.040;7.472;2022-08-01T18:07:38;6.70;;;1.80;;
58972;SDS011;44750;52.040;7.472;2022-08-01T18:12:38;4.70;;;1.70;;
58972;SDS011;44750;52.040;7.472;2022-08-01T18:17:38;5.35;;;1.65;;
58972;SDS011;44750;52.040;7.472;2022-08-01T18:22:38;3.83;;;1.67;;
58972;SDS011;44750;52.040;7.472;2022-08-01T18:27:39;6.68;;;2.08;;
58972;SDS011;44750;52.040;7.472;2022-08-01T18:32:39;6.87;;;1.90;;
58972;SDS011;44750;52.040;7.472;2022-08-01T18:37:39;11.85;;;1.85;;
58972;SDS011;44750;52.040;7.472;2022-08-01T18:42:40;8.87;;;2.00;;
58972;SDS011;44750;52.040;7.472;2022-08-01T18:47:40;8.20;;;2.08;;
58972;SDS011;44750;52.040;7.472;2022-08-01T18:52:40;12.07;;;2.17;;
58972;SDS011;44750;52.040;7.472;2022-08-01T18:57:40;6.45;;;1.90;;
58972;SDS011;44750;52.040;7.472;2022-08-01T19:02:40;6.95;;;2.00;;
58972;SDS011;44750;52.040;7.472;2022-08-01T19:07:41;7.00;;;2.22;;
58972;SDS011;44750;52.040;7.472;2022-08-01T19:12:41;5.93;;;1.75;;
58972;SDS011;44750;52.040;7.472;2022-08-01T19:17:41;4.65;;;1.83;;
58972;SDS011;44750;52.040;7.472;2022-08-01T19:22:42;7.43;;;1.80;;
58972;SDS011;44750;52.040;7.472;2022-08-01T19:27:45;5.03;;;1.73;;
58972;SDS011;44750;52.040;7.472;2022-08-01T19:32:47;8.40;;;1.80;;
58972;SDS011;44750;52.040;7.472;2022-08-01T19:37:47;6.82;;;1.90;;
58972;SDS011;44750;52.040;7.472;2022-08-01T19:42:47;5.35;;;1.73;;
58972;SDS011;44750;52.040;7.472;2022-08-01T19:47:49;4.68;;;1.98;;
58972;SDS011;44750;52.040;7.472;2022-08-01T19:52:50;9.88;;;2.10;;
58972;SDS011;44750;52.040;7.472;2022-08-01T19:57:51;6.32;;;2.50;;
58972;SDS011;44750;52.040;7.472;2022-08-01T20:02:52;6.72;;;2.30;;
58972;SDS011;44750;52.040;7.472;2022-08-01T20:07:55;6.20;;;2.20;;
58972;SDS011;44750;52.040;7.472;2022-08-01T20:12:56;7.90;;;2.33;;
58972;SDS011;44750;52.040;7.472;2022-08-01T20:17:56;4.55;;;1.73;;
58972;SDS011;44750;52.040;7.472;2022-08-01T20:22:57;7.32;;;2.00;;
58972;SDS011;44750;52.040;7.472;2022-08-01T20:27:57;4.87;;;2.30;;
58972;SDS011;44750;52.040;7.472;2022-08-01T20:32:58;4.18;;;2.00;;
58972;SDS011;44750;52.040;7.472;2022-08-01T20:38:00;7.25;;;1.83;;
58972;SDS011;44750;52.040;7.472;2022-08-01T20:43:01;7.88;;;1.80;;
58972;SDS011;44750;52.040;7.472;2022-08-01T20:48:02;11.80;;;2.83;;
58972;SDS011;44750;52.040;7.472;2022-08-01T20:53:05;6.67;;;2.10;;
58972;SDS011;44750;52.040;7.472;2022-08-01T20:58:06;5.88;;;1.85;;
58972;SDS011;44750;52.040;7.472;2022-08-01T21:03:07;7.97;;;2.53;;
58972;SDS011;44750;52.040;7.472;2022-08-01T21:08:18;7.40;;;1.98;;
58972;SDS011;44750;52.040;7.472;2022-08-01T21:13:37;6.93;;;2.05;;
58972;SDS011;44750;52.040;7.472;2022-08-01T21:23:56;4.97;;;1.80;;
58972;SDS011;44750;52.040;7.472;2022-08-01T21:28:59;5.20;;;1.65;;
58972;SDS011;44750;52.040;7.472;2022-08-01T21:34:04;6.57;;;1.90;;
58972;SDS011;44750;52.040;7.472;2022-08-01T21:39:05;8.25;;;2.20;;
58972;SDS011;44750;52.040;7.472;2022-08-01T21:44:05;8.80;;;2.03;;
58972;SDS011;44750;52.040;7.472;2022-08-01T21:49:07;5.40;;;2.17;;
58972;SDS011;44750;52.040;7.472;2022-08-01T21:59:31;10.57;;;2.20;;
58972;SDS011;44750;52.040;7.472;2022-08-01T22:04:41;5.47;;;2.15;;
58972;SDS011;44750;52.040;7.472;2022-08-01T22:09:49;3.67;;;1.90;;
58972;SDS011;44750;52.040;7.472;2022-08-01T22:14:52;7.80;;;2.00;;
58972;SDS011;44750;52.040;7.472;2022-08-01T22:19:56;8.88;;;2.10;;
58972;SDS011;44750;52.040;7.472;2022-08-01T22:24:56;9.57;;;2.20;;
58972;SDS011;44750;52.040;7.472;2022-08-01T22:30:01;6.75;;;2.28;;
58972;SDS011;44750;52.040;7.472;2022-08-01T22:35:05;7.70;;;2.15;;
58972;SDS011;44750;52.040;7.472;2022-08-01T22:40:08;7.80;;;2.10;;
58972;SDS011;44750;52.040;7.472;2022-08-01T22:45:19;5.25;;;2.40;;
58972;SDS011;44750;52.040;7.472;2022-08-01T22:50:28;4.32;;;2.70;;
58972;SDS011;44750;52.040;7.472;2022-08-01T22:55:32;7.45;;;2.38;;
58972;SDS011;44750;52.040;7.472;2022-08-01T23:00:35;8.55;;;2.75;;
58972;SDS011;44750;52.040;7.472;2022-08-01T23:05:40;7.43;;;2.22;;
58972;SDS011;44750;52.040;7.472;2022-08-01T23:10:45;8.23;;;2.47;;
58972;SDS011;44750;52.040;7.472;2022-08-01T23:15:46;10.32;;;2.40;;
58972;SDS011;44750;52.040;7.472;2022-08-01T23:20:48;4.93;;;2.55;;
58972;SDS011;44750;52.040;7.472;2022-08-01T23:25:49;8.55;;;2.60;;
58972;SDS011;44750;52.040;7.472;2022-08-01T23:30:51;9.75;;;2.95;;
58972;SDS011;44750;52.040;7.472;2022-08-01T23:35:51;6.15;;;2.40;;
58972;SDS011;44750;52.040;7.472;2022-08-01T23:40:51;10.88;;;2.53;;
58972;SDS011;44750;52.040;7.472;2022-08-01T23:45:52;7.70;;;2.38;;
58972;SDS011;44750;52.040;7.472;2022-08-01T23:50:52;6.40;;;2.28;;
58972;SDS011;44750;52.040;7.472;2022-08-01T23:55:52;13.68;;;2.72;;
